This is the latest recevied weather packets stored in our database for station/object KE0TNI-13. If no packets are shown the sender has not sent any weather packets the latest 10 day(s).
| Time | Temp. | Humidity | Pressure | Rain* | Wind** | Luminosity | Snow |
|---|---|---|---|---|---|---|---|
| 1777776227 | 3.33° C | 47% | 1023.6 hPa | 0 mm | - | 0 W/m² | - |
| 1777775923 | 3.33° C | 47% | 1023.5 hPa | 0 mm | - | 0 W/m² | - |
| 1777775621 | 3.89° C | 46% | 1023.7 hPa | 0 mm | - | 0 W/m² | - |
| 1777775317 | 3.89° C | 49% | 1023.6 hPa | 0 mm | - | 0 W/m² | - |
| 1777775012 | 3.89° C | 48% | 1023.5 hPa | 0 mm | - | 0 W/m² | - |
| 1777774709 | 4.44° C | 46% | 1023.6 hPa | 0 mm | - | 0 W/m² | - |
| 1777774405 | 4.44° C | 46% | 1023.3 hPa | 0 mm | - | 0 W/m² | - |
| 1777774102 | 4.44° C | 48% | 1023.2 hPa | 0 mm | - | 0 W/m² | - |
| 1777773801 | 5° C | 45% | 1023.3 hPa | 0 mm | - | 1 W/m² | - |
| 1777773497 | 5° C | 46% | 1023.2 hPa | 0 mm | - | 2 W/m² | - |
| 1777772889 | 5.56° C | 48% | 1023.2 hPa | 0 mm | - | 4 W/m² | - |
| 1777771982 | 6.67° C | 42% | 1023.2 hPa | 0 mm | - | 9 W/m² | - |
| 1777752104 | 12.78° C | 25% | 1024.6 hPa | 0 mm | - | 56 W/m² | - |
| 1777751803 | 12.78° C | 25% | 1024.6 hPa | 0 mm | - | 56 W/m² | - |
| 1777750589 | 13.89° C | 28% | 1024.6 hPa | 0 mm | - | 52 W/m² | - |
| 1777749981 | 12.78° C | 28% | 1024.6 hPa | 0 mm | - | 51 W/m² | - |
| 1777749679 | 12.22° C | 24% | 1024.8 hPa | 0 mm | - | 47 W/m² | - |
| 1777749376 | 12.78° C | 27% | 1024.9 hPa | 0 mm | - | 46 W/m² | - |
| 1777749073 | 13.33° C | 24% | 1024.8 hPa | 0 mm | - | 46 W/m² | - |
| 1777748771 | 13.33° C | 23% | 1025 hPa | 0 mm | - | 45 W/m² | - |
| 1777748468 | 13.33° C | 30% | 1024.8 hPa | 0 mm | - | 45 W/m² | - |
| 1777748163 | 13.89° C | 23% | 1024.5 hPa | 0 mm | - | 45 W/m² | - |
| 1777747860 | 13.33° C | 27% | 1025 hPa | 0 mm | - | 46 W/m² | - |
| 1777747556 | 12.78° C | 23% | 1025.3 hPa | 0 mm | - | 46 W/m² | - |
| 1777747251 | 12.78° C | 29% | 1024.9 hPa | 0 mm | - | 46 W/m² | - |
* Rain latest hour (hover to see other rain measurements)
** Current wind speed in m/s (hover to see current wind gust speed)